Aviation Digital Data Service (ADDS)

Output produced by METARs form (1026 UTC 16 August 2018)
found at http://aviationweather.gov/adds/metars/
 
KMSY 160520Z 1606/1712 19005KT P6SM BKN200 
     FM161400 14005KT P6SM FEW025 
     FM161700 VRB06KT P6SM VCTS SCT030CB SCT160 
     FM170100 VRB03KT P6SM SCT250 
     FM171100 00000KT P6SM BKN150